Watertown, Connecticut
Current Conditions -  °F | °C
As of 6:55 PM on Monday 26 Jan 2015 (Local Time) from KOXC Reporting Station
Blowing Snow Blowing Snow  
Wind Chill:   Ceiling: 2000
Heat Index: 19°   Visibility: 6mi
Dew Point: 10°   Wind: 21mph
Humidity: 68%   Direction: 60°ENE
Pressure: 29.86"   Gusts: 29mph
Location:  41.61°N, 73.12°W
Report Text: KOXC 262355Z 06018G25KT 1-1/2SM BLSN OVC020 M07/M12 A2986 RMK KOXC AIRPORT CLSD. UPDATE AT 1700Z ON 27JAN2015.
Loading
Personal Weather Stations






























Interactive Weather Map New forecast layout! Learn more

10-Day Weather Forecast

Advertisements
Track Severe Weather on mobile